Time,TemperatureF,DewpointF,PressureIn,WindDirection,WindDirectionDegrees,WindSpeedMPH,WindSpeedGustMPH,Humidity,HourlyPrecipIn,Conditions,Clouds,dailyrainin,SoftwareType,DateUTC
2013-06-22 00:02:00,50.5,36.0,24.23,NW,315,4.0,4.0,57,0.00,,,0.00,meteohub,2013-06-22 06:02:00,
2013-06-22 00:07:00,50.5,36.0,24.23,NW,315,4.0,4.0,57,0.00,,,0.00,meteohub,2013-06-22 06:07:00,
2013-06-22 00:12:00,48.9,38.1,24.22,NW,315,7.0,7.0,66,0.00,,,0.00,meteohub,2013-06-22 06:12:00,
2013-06-22 00:17:00,48.0,37.9,24.23,NW,315,5.0,7.0,68,0.00,,,0.00,meteohub,2013-06-22 06:17:00,
2013-06-22 00:22:00,48.2,38.8,24.22,NW,315,4.0,7.0,70,0.00,,,0.00,meteohub,2013-06-22 06:22:00,
2013-06-22 00:27:00,48.7,39.4,24.22,NW,315,5.0,7.0,70,0.00,,,0.00,meteohub,2013-06-22 06:27:00,
2013-06-22 00:32:00,48.4,39.4,24.22,NW,315,6.0,7.0,71,0.00,,,0.00,meteohub,2013-06-22 06:32:00,
2013-06-22 00:37:00,48.4,39.0,24.23,NW,315,4.0,7.0,70,0.00,,,0.00,meteohub,2013-06-22 06:37:00,
2013-06-22 00:42:00,48.6,38.8,24.23,NW,315,4.0,7.0,69,0.00,,,0.00,meteohub,2013-06-22 06:42:00,
2013-06-22 00:47:00,48.7,39.0,24.23,NW,315,5.0,7.0,69,0.00,,,0.00,meteohub,2013-06-22 06:47:00,
2013-06-22 00:52:00,48.9,38.8,24.23,NNW,338,4.0,5.0,68,0.00,,,0.00,meteohub,2013-06-22 06:52:00,
2013-06-22 00:57:00,48.7,38.7,24.23,North,0,7.0,7.0,68,0.00,,,0.00,meteohub,2013-06-22 06:57:00,
2013-06-22 01:02:00,48.6,38.5,24.22,North,0,7.0,8.0,68,0.00,,,0.00,meteohub,2013-06-22 07:02:00,
2013-06-22 01:07:00,48.6,38.5,24.22,North,0,7.0,8.0,68,0.00,,,0.00,meteohub,2013-06-22 07:07:00,
2013-06-22 01:12:00,46.9,39.0,24.22,NW,315,6.0,8.0,74,0.00,,,0.00,meteohub,2013-06-22 07:12:00,
2013-06-22 01:17:00,46.6,39.4,24.22,NW,315,7.0,8.0,76,0.00,,,0.00,meteohub,2013-06-22 07:17:00,
2013-06-22 01:22:00,46.8,39.6,24.22,NW,315,8.0,8.0,76,0.00,,,0.00,meteohub,2013-06-22 07:22:00,
2013-06-22 01:27:00,46.6,39.7,24.22,NW,315,7.0,8.0,77,0.00,,,0.00,meteohub,2013-06-22 07:27:00,
2013-06-22 01:32:00,46.2,39.4,24.22,NW,315,5.0,8.0,77,0.00,,,0.00,meteohub,2013-06-22 07:32:00,
2013-06-22 01:37:00,45.5,39.4,24.22,NW,315,8.0,8.0,79,0.00,,,0.00,meteohub,2013-06-22 07:37:00,
2013-06-22 01:42:00,45.0,39.7,24.22,NW,315,9.0,9.0,82,0.00,,,0.00,meteohub,2013-06-22 07:42:00,
2013-06-22 01:47:00,44.4,39.9,24.22,NW,315,10.0,10.0,84,0.00,,,0.00,meteohub,2013-06-22 07:47:00,
2013-06-22 01:52:00,43.9,40.3,24.22,NW,315,11.0,12.0,87,0.00,,,0.00,meteohub,2013-06-22 07:52:00,
2013-06-22 01:57:00,43.5,40.8,24.22,NW,315,11.0,12.0,90,0.00,,,0.00,meteohub,2013-06-22 07:57:00,
2013-06-22 02:02:00,43.3,40.6,24.22,NW,315,11.0,12.0,90,0.00,,,0.00,meteohub,2013-06-22 08:02:00,
2013-06-22 02:07:00,43.3,40.6,24.22,NW,315,11.0,11.0,90,0.00,,,0.00,meteohub,2013-06-22 08:07:00,
2013-06-22 02:12:00,42.4,40.6,24.22,NW,315,8.0,11.0,93,0.00,,,0.00,meteohub,2013-06-22 08:12:00,
2013-06-22 02:17:00,42.4,40.8,24.22,NW,315,8.0,11.0,94,0.00,,,0.00,meteohub,2013-06-22 08:17:00,
2013-06-22 02:22:00,42.6,41.0,24.22,NW,315,10.0,11.0,94,0.00,,,0.00,meteohub,2013-06-22 08:22:00,
2013-06-22 02:27:00,42.3,40.6,24.22,NW,315,11.0,11.0,94,0.00,,,0.00,meteohub,2013-06-22 08:27:00,
2013-06-22 02:32:00,42.1,40.8,24.22,NW,315,14.0,14.0,95,0.00,,,0.00,meteohub,2013-06-22 08:32:00,
2013-06-22 02:42:00,41.7,41.5,24.21,NW,315,12.0,14.0,99,0.00,,,0.00,meteohub,2013-06-22 08:42:00,
2013-06-22 02:47:00,41.5,41.4,24.22,NW,315,12.0,14.0,99,0.00,,,0.00,meteohub,2013-06-22 08:47:00,
2013-06-22 02:52:00,41.4,41.2,24.21,NW,315,11.0,13.0,99,0.00,,,0.00,meteohub,2013-06-22 08:52:00,
2013-06-22 02:57:00,41.4,41.2,24.22,NW,315,11.0,13.0,99,0.00,,,0.00,meteohub,2013-06-22 08:57:00,
2013-06-22 03:02:00,41.2,41.0,24.21,NW,315,11.0,12.0,99,0.00,,,0.00,meteohub,2013-06-22 09:02:00,
2013-06-22 03:07:00,41.2,41.0,24.22,NW,315,11.0,11.0,99,0.00,,,0.00,meteohub,2013-06-22 09:07:00,
2013-06-22 03:12:00,41.2,41.0,24.21,NW,315,14.0,14.0,99,0.00,,,0.00,meteohub,2013-06-22 09:12:00,
2013-06-22 03:17:00,41.2,41.0,24.21,NW,315,13.0,15.0,99,0.00,,,0.00,meteohub,2013-06-22 09:17:00,
2013-06-22 03:22:00,41.0,40.8,24.21,NW,315,12.0,15.0,99,0.00,,,0.00,meteohub,2013-06-22 09:22:00,
2013-06-22 03:27:00,41.0,40.8,24.21,NW,315,12.0,15.0,99,0.00,,,0.00,meteohub,2013-06-22 09:27:00,
2013-06-22 03:32:00,41.0,40.8,24.21,NW,315,13.0,14.0,99,0.00,,,0.00,meteohub,2013-06-22 09:32:00,
2013-06-22 03:37:00,41.0,40.8,24.21,NW,315,11.0,14.0,99,0.00,,,0.00,meteohub,2013-06-22 09:37:00,
2013-06-22 03:42:00,41.2,41.0,24.21,NW,315,14.0,14.0,99,0.00,,,0.00,meteohub,2013-06-22 09:42:00,
2013-06-22 03:47:00,41.5,41.4,24.21,NW,315,13.0,14.0,99,0.00,,,0.00,meteohub,2013-06-22 09:47:00,
2013-06-22 03:52:00,41.5,41.4,24.21,NW,315,14.0,15.0,99,0.00,,,0.00,meteohub,2013-06-22 09:52:00,
2013-06-22 03:57:00,41.5,41.4,24.21,NW,315,15.0,15.0,99,0.00,,,0.00,meteohub,2013-06-22 09:57:00,
2013-06-22 04:02:00,41.5,41.4,24.20,NW,315,13.0,15.0,99,0.00,,,0.00,meteohub,2013-06-22 10:02:00,
2013-06-22 04:07:00,41.5,41.4,24.20,NW,315,13.0,15.0,99,0.00,,,0.00,meteohub,2013-06-22 10:07:00,
2013-06-22 04:12:00,41.2,41.0,24.21,NNW,338,17.0,17.0,99,0.00,,,0.00,meteohub,2013-06-22 10:12:00,
2013-06-22 04:17:00,41.0,40.8,24.20,NW,315,15.0,17.0,99,0.00,,,0.00,meteohub,2013-06-22 10:17:00,
2013-06-22 04:22:00,41.0,40.8,24.20,NW,315,15.0,17.0,99,0.00,,,0.00,meteohub,2013-06-22 10:22:00,
2013-06-22 04:27:00,40.6,40.5,24.21,NW,315,16.0,17.0,99,0.00,,,0.00,meteohub,2013-06-22 10:27:00,
2013-06-22 04:32:00,40.5,40.3,24.21,NNW,338,15.0,16.0,99,0.00,,,0.00,meteohub,2013-06-22 10:32:00,
2013-06-22 04:37:00,40.5,40.3,24.20,NW,315,15.0,16.0,99,0.00,,,0.00,meteohub,2013-06-22 10:37:00,
2013-06-22 04:42:00,40.5,40.3,24.21,NW,315,14.0,16.0,99,0.00,,,0.00,meteohub,2013-06-22 10:42:00,
2013-06-22 04:47:00,40.3,40.1,24.21,NW,315,12.0,16.0,99,0.00,,,0.00,meteohub,2013-06-22 10:47:00,
2013-06-22 04:52:00,40.3,40.1,24.21,NW,315,13.0,16.0,99,0.00,,,0.00,meteohub,2013-06-22 10:52:00,
2013-06-22 04:57:00,40.3,40.1,24.21,NW,315,12.0,14.0,99,0.00,,,0.00,meteohub,2013-06-22 10:57:00,
2013-06-22 05:02:00,40.3,40.1,24.21,NW,315,11.0,14.0,99,0.00,,,0.00,meteohub,2013-06-22 11:02:00,
2013-06-22 05:07:00,40.3,40.1,24.20,NW,315,11.0,14.0,99,0.00,,,0.00,meteohub,2013-06-22 11:07:00,
2013-06-22 05:12:00,40.6,40.5,24.21,NW,315,11.0,12.0,99,0.00,,,0.00,meteohub,2013-06-22 11:12:00,
2013-06-22 05:17:00,40.5,40.3,24.21,NW,315,12.0,13.0,99,0.00,,,0.00,meteohub,2013-06-22 11:17:00,
2013-06-22 05:22:00,40.5,40.3,24.21,NW,315,12.0,13.0,99,0.00,,,0.00,meteohub,2013-06-22 11:22:00,
2013-06-22 05:27:00,40.5,40.3,24.20,NW,315,12.0,13.0,99,0.00,,,0.00,meteohub,2013-06-22 11:27:00,
2013-06-22 05:32:00,40.5,40.3,24.20,NW,315,12.0,13.0,99,0.00,,,0.00,meteohub,2013-06-22 11:32:00,
2013-06-22 05:37:00,40.5,39.9,24.21,NW,315,11.0,13.0,98,0.00,,,0.00,meteohub,2013-06-22 11:37:00,
2013-06-22 05:42:00,40.6,40.1,24.21,NW,315,9.0,12.0,98,0.00,,,0.00,meteohub,2013-06-22 11:42:00,
2013-06-22 05:47:00,40.6,40.1,24.21,NW,315,9.0,12.0,98,0.00,,,0.00,meteohub,2013-06-22 11:47:00,
2013-06-22 05:52:00,40.6,39.9,24.21,NW,315,8.0,11.0,97,0.00,,,0.00,meteohub,2013-06-22 11:52:00,
2013-06-22 05:57:00,40.6,39.9,24.21,NW,315,8.0,11.0,97,0.00,,,0.00,meteohub,2013-06-22 11:57:00,
2013-06-22 06:02:00,40.8,40.1,24.21,NW,315,7.0,10.0,97,0.00,,,0.00,meteohub,2013-06-22 12:02:00,
2013-06-22 06:07:00,40.8,40.1,24.21,NW,315,7.0,8.0,97,0.00,,,0.00,meteohub,2013-06-22 12:07:00,
2013-06-22 06:12:00,41.0,39.9,24.22,NW,315,7.0,8.0,96,0.00,,,0.00,meteohub,2013-06-22 12:12:00,
2013-06-22 06:17:00,41.2,40.1,24.21,NW,315,6.0,8.0,96,0.00,,,0.00,meteohub,2013-06-22 12:17:00,
2013-06-22 06:22:00,41.4,40.1,24.21,NW,315,5.0,8.0,95,0.00,,,0.00,meteohub,2013-06-22 12:22:00,
2013-06-22 06:27:00,41.7,40.5,24.21,NNE,23,8.0,8.0,95,0.00,,,0.00,meteohub,2013-06-22 12:27:00,
2013-06-22 06:32:00,42.1,40.5,24.21,North,0,7.0,8.0,94,0.00,,,0.00,meteohub,2013-06-22 12:32:00,
2013-06-22 06:37:00,42.3,40.5,24.21,North,0,7.0,8.0,93,0.00,,,0.00,meteohub,2013-06-22 12:37:00,
2013-06-22 06:42:00,42.3,40.5,24.21,North,0,6.0,8.0,93,0.00,,,0.00,meteohub,2013-06-22 12:42:00,
2013-06-22 06:47:00,42.4,40.8,24.22,North,0,6.0,7.0,94,0.00,,,0.00,meteohub,2013-06-22 12:47:00,
2013-06-22 06:52:00,42.8,41.2,24.22,NNE,23,7.0,7.0,94,0.00,,,0.00,meteohub,2013-06-22 12:52:00,
2013-06-22 06:57:00,43.0,41.9,24.22,NE,45,7.0,8.0,96,0.00,,,0.00,meteohub,2013-06-22 12:57:00,
2013-06-22 07:02:00,43.0,41.9,24.22,NE,45,9.0,11.0,96,0.00,,,0.00,meteohub,2013-06-22 13:02:00,
2013-06-22 07:07:00,43.0,41.9,24.22,NE,45,9.0,11.0,96,0.00,,,0.00,meteohub,2013-06-22 13:07:00,
2013-06-22 07:12:00,43.2,42.4,24.22,North,0,9.0,11.0,97,0.00,,,0.00,meteohub,2013-06-22 13:12:00,
2013-06-22 07:17:00,43.3,42.6,24.22,NE,45,8.0,10.0,97,0.00,,,0.00,meteohub,2013-06-22 13:17:00,
2013-06-22 07:22:00,43.2,42.1,24.22,North,0,8.0,10.0,96,0.00,,,0.00,meteohub,2013-06-22 13:22:00,
2013-06-22 07:27:00,43.2,42.1,24.22,North,0,7.0,10.0,96,0.00,,,0.00,meteohub,2013-06-22 13:27:00,
2013-06-22 07:32:00,43.2,41.5,24.21,NW,315,6.0,10.0,94,0.00,,,0.00,meteohub,2013-06-22 13:32:00,
2013-06-22 07:37:00,43.0,41.4,24.21,NW,315,6.0,9.0,94,0.00,,,0.00,meteohub,2013-06-22 13:37:00,
2013-06-22 07:42:00,42.8,41.2,24.22,NW,315,7.0,9.0,94,0.00,,,0.00,meteohub,2013-06-22 13:42:00,
2013-06-22 07:47:00,42.4,40.8,24.21,NW,315,10.0,10.0,94,0.00,,,0.00,meteohub,2013-06-22 13:47:00,
2013-06-22 07:52:00,42.4,40.6,24.21,NW,315,10.0,11.0,93,0.00,,,0.00,meteohub,2013-06-22 13:52:00,
2013-06-22 07:57:00,42.4,40.8,24.21,WNW,293,10.0,11.0,94,0.00,,,0.00,meteohub,2013-06-22 13:57:00,
2013-06-22 08:02:00,42.4,40.8,24.22,NW,315,8.0,11.0,94,0.00,,,0.00,meteohub,2013-06-22 14:02:00,
2013-06-22 08:12:00,42.3,41.0,24.22,NW,315,7.0,10.0,95,0.00,,,0.00,meteohub,2013-06-22 14:12:00,
2013-06-22 08:17:00,42.1,40.8,24.22,West,270,9.0,9.0,95,0.00,,,0.00,meteohub,2013-06-22 14:17:00,
2013-06-22 08:22:00,42.1,41.0,24.22,NW,315,8.0,9.0,96,0.00,,,0.00,meteohub,2013-06-22 14:22:00,
2013-06-22 08:27:00,41.9,40.8,24.22,NW,315,8.0,9.0,96,0.00,,,0.00,meteohub,2013-06-22 14:27:00,
2013-06-22 08:32:00,41.9,40.8,24.22,NW,315,8.0,10.0,96,0.00,,,0.00,meteohub,2013-06-22 14:32:00,
2013-06-22 08:37:00,41.9,40.8,24.22,NW,315,7.0,10.0,96,0.00,,,0.00,meteohub,2013-06-22 14:37:00,
2013-06-22 08:42:00,42.3,40.6,24.22,NW,315,5.0,10.0,94,0.00,,,0.00,meteohub,2013-06-22 14:42:00,
2013-06-22 08:47:00,42.1,40.8,24.22,West,270,4.0,9.0,95,0.00,,,0.00,meteohub,2013-06-22 14:47:00,
2013-06-22 08:52:00,42.3,40.6,24.22,NW,315,4.0,7.0,94,0.01,,,0.00,meteohub,2013-06-22 14:52:00,
2013-06-22 08:57:00,42.4,40.8,24.22,North,0,5.0,5.0,94,0.01,,,0.01,meteohub,2013-06-22 14:57:00,
2013-06-22 09:02:00,42.4,41.2,24.22,NW,315,6.0,6.0,95,0.01,,,0.01,meteohub,2013-06-22 15:02:00,
2013-06-22 09:07:00,42.4,41.2,24.22,NW,315,6.0,6.0,95,0.01,,,0.01,meteohub,2013-06-22 15:07:00,
2013-06-22 09:12:00,41.5,41.4,24.23,NW,315,6.0,8.0,99,0.01,,,0.01,meteohub,2013-06-22 15:12:00,
2013-06-22 09:17:00,41.2,41.0,24.23,WNW,293,4.0,8.0,99,0.02,,,0.02,meteohub,2013-06-22 15:17:00,
2013-06-22 09:22:00,41.2,41.0,24.22,West,270,3.0,8.0,99,0.02,,,0.02,meteohub,2013-06-22 15:22:00,
2013-06-22 09:27:00,41.4,41.2,24.23,SSE,158,3.0,6.0,99,0.04,,,0.04,meteohub,2013-06-22 15:27:00,
2013-06-22 09:32:00,41.7,41.5,24.23,South,180,8.0,11.0,99,0.04,,,0.04,meteohub,2013-06-22 15:32:00,
2013-06-22 09:37:00,41.7,41.5,24.23,South,180,5.0,11.0,99,0.05,,,0.05,meteohub,2013-06-22 15:37:00,
2013-06-22 09:42:00,41.9,41.7,24.23,South,180,4.0,11.0,99,0.05,,,0.05,meteohub,2013-06-22 15:42:00,
2013-06-22 09:47:00,42.3,42.1,24.23,South,180,6.0,8.0,99,0.06,,,0.06,meteohub,2013-06-22 15:47:00,
2013-06-22 09:52:00,42.4,42.3,24.23,South,180,4.0,7.0,99,0.05,,,0.06,meteohub,2013-06-22 15:52:00,
2013-06-22 09:57:00,42.6,42.1,24.23,South,180,2.0,8.0,98,0.05,,,0.06,meteohub,2013-06-22 15:57:00,
2013-06-22 10:02:00,42.8,42.1,24.22,East,90,0.0,8.0,97,0.05,,,0.06,meteohub,2013-06-22 16:02:00,
2013-06-22 10:07:00,42.8,42.1,24.22,East,90,0.0,5.0,97,0.05,,,0.06,meteohub,2013-06-22 16:07:00,
2013-06-22 10:12:00,43.0,41.9,24.22,NW,315,7.0,8.0,96,0.05,,,0.07,meteohub,2013-06-22 16:12:00,
2013-06-22 10:17:00,42.6,42.1,24.22,NW,315,5.0,8.0,98,0.05,,,0.07,meteohub,2013-06-22 16:17:00,
2013-06-22 10:22:00,43.2,42.4,24.22,North,0,7.0,8.0,97,0.05,,,0.07,meteohub,2013-06-22 16:22:00,
2013-06-22 10:27:00,43.5,41.7,24.22,North,0,7.0,8.0,93,0.04,,,0.07,meteohub,2013-06-22 16:27:00,
2013-06-22 10:32:00,44.2,42.1,24.22,NNW,338,7.0,8.0,92,0.02,,,0.07,meteohub,2013-06-22 16:32:00,
2013-06-22 10:37:00,44.6,43.3,24.22,SW,225,5.0,8.0,95,0.02,,,0.07,meteohub,2013-06-22 16:37:00,
2013-06-22 10:42:00,45.1,43.5,24.22,NE,45,6.0,8.0,94,0.02,,,0.07,meteohub,2013-06-22 16:42:00,
2013-06-22 10:47:00,45.7,43.7,24.22,West,270,5.0,7.0,93,0.01,,,0.07,meteohub,2013-06-22 16:47:00,
2013-06-22 10:52:00,45.3,43.2,24.22,NW,315,8.0,10.0,92,0.01,,,0.07,meteohub,2013-06-22 16:52:00,
2013-06-22 10:57:00,44.4,43.3,24.22,WNW,293,8.0,10.0,96,0.01,,,0.07,meteohub,2013-06-22 16:57:00,
2013-06-22 11:02:00,43.9,43.2,24.22,NW,315,9.0,10.0,97,0.01,,,0.07,meteohub,2013-06-22 17:02:00,
2013-06-22 11:07:00,43.9,43.2,24.22,NW,315,9.0,10.0,97,0.01,,,0.07,meteohub,2013-06-22 17:07:00,
2013-06-22 11:12:00,43.9,43.7,24.22,NW,315,8.0,9.0,99,0.00,,,0.07,meteohub,2013-06-22 17:12:00,
2013-06-22 11:17:00,44.2,44.1,24.22,NW,315,7.0,9.0,99,0.00,,,0.07,meteohub,2013-06-22 17:17:00,
2013-06-22 11:22:00,44.6,44.4,24.22,West,270,6.0,9.0,99,0.00,,,0.07,meteohub,2013-06-22 17:22:00,
2013-06-22 11:27:00,44.6,44.1,24.22,NW,315,7.0,8.0,98,0.00,,,0.07,meteohub,2013-06-22 17:27:00,
2013-06-22 11:32:00,44.6,43.9,24.22,West,270,7.0,8.0,97,0.00,,,0.07,meteohub,2013-06-22 17:32:00,
2013-06-22 11:37:00,45.0,43.9,24.22,NW,315,6.0,8.0,96,0.00,,,0.07,meteohub,2013-06-22 17:37:00,
2013-06-22 11:42:00,45.3,44.1,24.22,NW,315,8.0,8.0,95,0.01,,,0.08,meteohub,2013-06-22 17:42:00,
2013-06-22 11:47:00,45.9,44.2,24.22,North,0,4.0,8.0,94,0.01,,,0.08,meteohub,2013-06-22 17:47:00,
2013-06-22 11:52:00,47.1,45.0,24.22,NW,315,4.0,8.0,92,0.01,,,0.08,meteohub,2013-06-22 17:52:00,
2013-06-22 11:57:00,49.6,47.1,24.22,East,90,4.0,8.0,91,0.01,,,0.08,meteohub,2013-06-22 17:57:00,
2013-06-22 12:02:00,50.0,45.3,24.22,SE,135,8.0,8.0,84,0.01,,,0.08,meteohub,2013-06-22 18:02:00,
2013-06-22 12:07:00,50.0,45.3,24.22,SE,135,8.0,8.0,84,0.01,,,0.08,meteohub,2013-06-22 18:07:00,
2013-06-22 12:12:00,50.9,46.6,24.21,NE,45,2.0,8.0,85,0.01,,,0.08,meteohub,2013-06-22 18:12:00,
2013-06-22 12:17:00,50.9,45.0,24.22,South,180,5.0,8.0,80,0.01,,,0.08,meteohub,2013-06-22 18:17:00,
2013-06-22 12:22:00,50.9,45.9,24.22,SE,135,10.0,11.0,83,0.01,,,0.08,meteohub,2013-06-22 18:22:00,
2013-06-22 12:27:00,50.2,44.6,24.22,South,180,9.0,14.0,81,0.01,,,0.08,meteohub,2013-06-22 18:27:00,
2013-06-22 12:32:00,50.9,44.6,24.22,SSE,158,11.0,14.0,79,0.01,,,0.08,meteohub,2013-06-22 18:32:00,
2013-06-22 12:37:00,49.8,44.6,24.21,South,180,11.0,14.0,82,0.01,,,0.08,meteohub,2013-06-22 18:37:00,
2013-06-22 12:47:00,49.1,44.2,24.22,South,180,12.0,16.0,83,0.00,,,0.08,meteohub,2013-06-22 18:47:00,
2013-06-22 12:52:00,49.5,46.4,24.21,SSE,158,17.0,17.0,89,0.00,,,0.08,meteohub,2013-06-22 18:52:00,
2013-06-22 12:57:00,50.0,46.6,24.21,South,180,17.0,17.0,88,0.00,,,0.08,meteohub,2013-06-22 18:57:00,
2013-06-22 13:02:00,50.4,44.4,24.21,South,180,13.0,17.0,80,0.00,,,0.08,meteohub,2013-06-22 19:02:00,
2013-06-22 13:07:00,50.4,44.4,24.20,South,180,13.0,17.0,80,0.00,,,0.08,meteohub,2013-06-22 19:07:00,
2013-06-22 13:12:00,50.0,45.0,24.20,South,180,15.0,17.0,83,0.00,,,0.08,meteohub,2013-06-22 19:12:00,
2013-06-22 13:17:00,49.8,44.8,24.20,South,180,9.0,15.0,83,0.00,,,0.08,meteohub,2013-06-22 19:17:00,
2013-06-22 13:22:00,50.0,43.3,24.20,South,180,15.0,22.0,78,0.00,,,0.08,meteohub,2013-06-22 19:22:00,
2013-06-22 13:27:00,50.2,43.9,24.20,South,180,15.0,22.0,79,0.00,,,0.08,meteohub,2013-06-22 19:27:00,
2013-06-22 13:32:00,50.9,43.3,24.20,SE,135,12.0,22.0,75,0.00,,,0.08,meteohub,2013-06-22 19:32:00,
2013-06-22 13:37:00,52.0,42.4,24.20,SSE,158,17.0,18.0,70,0.00,,,0.08,meteohub,2013-06-22 19:37:00,
2013-06-22 13:42:00,51.3,43.3,24.20,South,180,11.0,18.0,74,0.00,,,0.08,meteohub,2013-06-22 19:42:00,
2013-06-22 13:47:00,51.3,42.6,24.20,SE,135,15.0,18.0,72,0.00,,,0.08,meteohub,2013-06-22 19:47:00,
2013-06-22 13:52:00,51.4,43.7,24.19,SSE,158,17.0,17.0,75,0.00,,,0.08,meteohub,2013-06-22 19:52:00,
2013-06-22 13:57:00,52.3,44.2,24.19,East,90,12.0,17.0,74,0.00,,,0.08,meteohub,2013-06-22 19:57:00,
2013-06-22 14:02:00,52.9,44.4,24.19,South,180,5.0,17.0,73,0.00,,,0.08,meteohub,2013-06-22 20:02:00,
2013-06-22 14:07:00,52.9,44.4,24.19,South,180,5.0,17.0,73,0.00,,,0.08,meteohub,2013-06-22 20:07:00,
2013-06-22 14:12:00,53.4,45.0,24.19,South,180,5.0,12.0,73,0.00,,,0.08,meteohub,2013-06-22 20:12:00,
2013-06-22 14:17:00,55.2,44.8,24.19,South,180,9.0,9.0,68,0.00,,,0.08,meteohub,2013-06-22 20:17:00,
2013-06-22 14:22:00,56.3,45.5,24.19,WSW,248,7.0,9.0,67,0.00,,,0.08,meteohub,2013-06-22 20:22:00,
2013-06-22 14:32:00,59.2,47.5,24.18,SE,135,2.0,9.0,65,0.00,,,0.08,meteohub,2013-06-22 20:32:00,
2013-06-22 14:37:00,56.5,43.2,24.18,NNW,338,10.0,10.0,61,0.00,,,0.08,meteohub,2013-06-22 20:37:00,
2013-06-22 14:42:00,55.0,45.1,24.18,North,0,11.0,11.0,69,0.00,,,0.08,meteohub,2013-06-22 20:42:00,
2013-06-22 14:47:00,56.3,43.9,24.18,West,270,8.0,11.0,63,0.00,,,0.08,meteohub,2013-06-22 20:47:00,
2013-06-22 14:52:00,57.2,45.5,24.18,NW,315,10.0,11.0,65,0.00,,,0.08,meteohub,2013-06-22 20:52:00,
2013-06-22 14:57:00,56.5,45.3,24.18,NW,315,7.0,12.0,66,0.00,,,0.08,meteohub,2013-06-22 20:57:00,
2013-06-22 15:02:00,55.4,43.9,24.17,NW,315,15.0,17.0,65,0.00,,,0.08,meteohub,2013-06-22 21:02:00,
2013-06-22 15:07:00,55.4,43.9,24.17,NW,315,15.0,17.0,65,0.00,,,0.08,meteohub,2013-06-22 21:07:00,
2013-06-22 15:12:00,55.6,45.1,24.17,West,270,11.0,17.0,68,0.00,,,0.08,meteohub,2013-06-22 21:12:00,
2013-06-22 15:17:00,55.4,43.9,24.17,NW,315,11.0,17.0,65,0.00,,,0.08,meteohub,2013-06-22 21:17:00,
2013-06-22 15:22:00,56.3,43.0,24.17,North,0,11.0,17.0,61,0.00,,,0.08,meteohub,2013-06-22 21:22:00,
2013-06-22 15:27:00,58.1,45.5,24.18,West,270,5.0,17.0,63,0.00,,,0.08,meteohub,2013-06-22 21:27:00,
2013-06-22 15:32:00,58.3,45.3,24.17,NW,315,11.0,14.0,62,0.00,,,0.08,meteohub,2013-06-22 21:32:00,
2013-06-22 15:37:00,57.9,42.3,24.18,NW,315,9.0,14.0,56,0.00,,,0.08,meteohub,2013-06-22 21:37:00,
2013-06-22 15:42:00,58.5,40.8,24.18,NW,315,11.0,14.0,52,0.00,,,0.08,meteohub,2013-06-22 21:42:00,
2013-06-22 15:47:00,59.0,42.8,24.18,West,270,5.0,14.0,55,0.00,,,0.08,meteohub,2013-06-22 21:47:00,
2013-06-22 15:52:00,58.3,42.3,24.18,NW,315,4.0,13.0,55,0.00,,,0.08,meteohub,2013-06-22 21:52:00,
2013-06-22 15:57:00,59.0,42.8,24.17,NE,45,10.0,11.0,55,0.00,,,0.08,meteohub,2013-06-22 21:57:00,
2013-06-22 16:02:00,57.7,41.7,24.17,NE,45,8.0,10.0,55,0.00,,,0.08,meteohub,2013-06-22 22:02:00,
2013-06-22 16:07:00,57.7,41.7,24.17,NE,45,8.0,10.0,55,0.00,,,0.08,meteohub,2013-06-22 22:07:00,
2013-06-22 16:12:00,55.2,42.8,24.17,North,0,7.0,10.0,63,0.00,,,0.08,meteohub,2013-06-22 22:12:00,
2013-06-22 16:17:00,55.8,42.4,24.17,NE,45,7.0,8.0,61,0.00,,,0.08,meteohub,2013-06-22 22:17:00,
2013-06-22 16:22:00,55.0,40.1,24.17,NE,45,9.0,10.0,57,0.00,,,0.08,meteohub,2013-06-22 22:22:00,
2013-06-22 16:27:00,55.0,42.3,24.17,East,90,7.0,10.0,62,0.00,,,0.08,meteohub,2013-06-22 22:27:00,
2013-06-22 16:32:00,54.5,40.1,24.17,North,0,12.0,12.0,58,0.00,,,0.08,meteohub,2013-06-22 22:32:00,
2013-06-22 16:37:00,54.1,39.2,24.16,NE,45,10.0,12.0,57,0.00,,,0.08,meteohub,2013-06-22 22:37:00,
2013-06-22 16:42:00,54.0,39.6,24.16,North,0,9.0,12.0,58,0.00,,,0.08,meteohub,2013-06-22 22:42:00,
2013-06-22 16:47:00,54.0,40.5,24.16,North,0,9.0,12.0,60,0.00,,,0.08,meteohub,2013-06-22 22:47:00,
2013-06-22 16:52:00,53.2,40.6,24.17,North,0,11.0,12.0,62,0.00,,,0.08,meteohub,2013-06-22 22:52:00,
2013-06-22 16:57:00,52.9,41.9,24.17,NNW,338,11.0,11.0,66,0.00,,,0.08,meteohub,2013-06-22 22:57:00,
2013-06-22 17:02:00,52.3,42.8,24.17,NW,315,13.0,13.0,70,0.00,,,0.08,meteohub,2013-06-22 23:02:00,
2013-06-22 17:07:00,52.3,42.8,24.17,NW,315,13.0,14.0,70,0.00,,,0.08,meteohub,2013-06-22 23:07:00,
2013-06-22 17:12:00,51.3,43.9,24.17,SW,225,5.0,14.0,76,0.01,,,0.09,meteohub,2013-06-22 23:12:00,
2013-06-22 17:17:00,51.8,43.0,24.17,SW,225,5.0,13.0,72,0.01,,,0.09,meteohub,2013-06-22 23:17:00,
2013-06-22 17:22:00,52.3,44.2,24.17,SW,225,5.0,13.0,74,0.01,,,0.09,meteohub,2013-06-22 23:22:00,
2013-06-22 17:32:00,54.7,42.8,24.17,South,180,4.0,6.0,64,0.01,,,0.09,meteohub,2013-06-22 23:32:00,
2013-06-22 17:37:00,54.9,45.0,24.17,South,180,10.0,10.0,69,0.01,,,0.09,meteohub,2013-06-22 23:37:00,
2013-06-22 17:42:00,53.8,45.0,24.17,South,180,11.0,11.0,72,0.01,,,0.09,meteohub,2013-06-22 23:42:00,
2013-06-22 17:47:00,52.9,44.4,24.17,South,180,11.0,12.0,73,0.01,,,0.09,meteohub,2013-06-22 23:47:00,
2013-06-22 17:52:00,52.3,42.8,24.17,SW,225,8.0,12.0,70,0.01,,,0.09,meteohub,2013-06-22 23:52:00,
2013-06-22 17:57:00,52.9,44.1,24.17,South,180,7.0,12.0,72,0.01,,,0.09,meteohub,2013-06-22 23:57:00,
2013-06-22 18:02:00,52.9,43.3,24.17,South,180,8.0,11.0,70,0.01,,,0.09,meteohub,2013-06-23 00:02:00,
2013-06-22 18:07:00,52.9,43.3,24.17,South,180,8.0,11.0,70,0.01,,,0.00,meteohub,2013-06-23 00:07:00,
2013-06-22 18:12:00,53.6,43.3,24.17,NNE,23,8.0,8.0,68,0.00,,,0.00,meteohub,2013-06-23 00:12:00,
2013-06-22 18:17:00,54.1,42.6,24.17,South,180,7.0,8.0,65,0.00,,,0.00,meteohub,2013-06-23 00:17:00,
2013-06-22 18:22:00,55.9,41.9,24.17,South,180,6.0,8.0,59,0.00,,,0.00,meteohub,2013-06-23 00:22:00,
2013-06-22 18:27:00,56.7,42.4,24.17,South,180,7.0,8.0,59,0.00,,,0.00,meteohub,2013-06-23 00:27:00,
2013-06-22 18:32:00,55.0,41.9,24.17,South,180,7.0,8.0,61,0.00,,,0.00,meteohub,2013-06-23 00:32:00,
2013-06-22 18:37:00,55.2,42.8,24.17,South,180,8.0,8.0,63,0.00,,,0.00,meteohub,2013-06-23 00:37:00,
2013-06-22 18:42:00,54.0,42.8,24.17,South,180,7.0,8.0,66,0.00,,,0.00,meteohub,2013-06-23 00:42:00,
2013-06-22 18:47:00,52.3,42.4,24.17,South,180,9.0,9.0,69,0.00,,,0.00,meteohub,2013-06-23 00:47:00,
2013-06-22 18:57:00,51.6,43.0,24.17,South,180,8.0,9.0,72,0.00,,,0.00,meteohub,2013-06-23 00:57:00,
2013-06-22 19:02:00,51.6,43.0,24.17,SW,225,8.0,10.0,72,0.00,,,0.00,meteohub,2013-06-23 01:02:00,
2013-06-22 19:07:00,51.6,43.0,24.18,SW,225,8.0,10.0,72,0.00,,,0.00,meteohub,2013-06-23 01:07:00,
2013-06-22 19:12:00,50.7,44.4,24.18,South,180,11.0,15.0,79,0.00,,,0.00,meteohub,2013-06-23 01:12:00,
2013-06-22 19:17:00,50.5,43.9,24.18,South,180,8.0,15.0,78,0.00,,,0.00,meteohub,2013-06-23 01:17:00,
2013-06-22 19:22:00,50.2,44.6,24.18,South,180,8.0,15.0,81,0.00,,,0.00,meteohub,2013-06-23 01:22:00,
2013-06-22 19:27:00,50.0,45.0,24.18,South,180,5.0,12.0,83,0.00,,,0.00,meteohub,2013-06-23 01:27:00,
2013-06-22 19:32:00,49.6,44.8,24.18,SE,135,7.0,9.0,83,0.00,,,0.00,meteohub,2013-06-23 01:32:00,
2013-06-22 19:37:00,49.8,44.6,24.18,South,180,4.0,8.0,82,0.00,,,0.00,meteohub,2013-06-23 01:37:00,
2013-06-22 19:42:00,50.0,42.8,24.18,SE,135,6.0,8.0,76,0.00,,,0.00,meteohub,2013-06-23 01:42:00,
2013-06-22 19:47:00,50.0,44.8,24.18,East,90,5.0,8.0,82,0.00,,,0.00,meteohub,2013-06-23 01:47:00,
2013-06-22 19:52:00,49.6,44.8,24.18,East,90,4.0,6.0,83,0.00,,,0.00,meteohub,2013-06-23 01:52:00,
2013-06-22 19:57:00,49.5,45.5,24.19,North,0,4.0,6.0,86,0.00,,,0.00,meteohub,2013-06-23 01:57:00,
2013-06-22 20:02:00,49.3,44.4,24.19,North,0,20.0,20.0,83,0.00,,,0.00,meteohub,2013-06-23 02:02:00,
2013-06-22 20:07:00,49.3,44.4,24.19,North,0,20.0,20.0,83,0.00,,,0.00,meteohub,2013-06-23 02:07:00,
2013-06-22 20:12:00,48.2,41.7,24.19,North,0,15.0,20.0,78,0.00,,,0.00,meteohub,2013-06-23 02:12:00,
2013-06-22 20:17:00,48.2,42.3,24.19,North,0,10.0,20.0,80,0.00,,,0.00,meteohub,2013-06-23 02:17:00,
2013-06-22 20:22:00,48.6,42.3,24.19,North,0,4.0,20.0,79,0.00,,,0.00,meteohub,2013-06-23 02:22:00,
2013-06-22 20:27:00,48.9,42.4,24.19,North,0,10.0,17.0,78,0.00,,,0.00,meteohub,2013-06-23 02:27:00,
2013-06-22 20:32:00,49.1,41.5,24.19,North,0,10.0,13.0,75,0.00,,,0.00,meteohub,2013-06-23 02:32:00,
2013-06-22 20:37:00,49.8,40.1,24.19,North,0,11.0,13.0,69,0.00,,,0.00,meteohub,2013-06-23 02:37:00,
2013-06-22 20:42:00,50.2,39.2,24.19,North,0,4.0,13.0,66,0.00,,,0.00,meteohub,2013-06-23 02:42:00,
2013-06-22 20:47:00,50.4,39.0,24.19,SE,135,2.0,11.0,65,0.00,,,0.00,meteohub,2013-06-23 02:47:00,
2013-06-22 20:52:00,49.3,42.8,24.19,SE,135,6.0,11.0,78,0.00,,,0.00,meteohub,2013-06-23 02:52:00,
2013-06-22 20:57:00,49.3,43.0,24.19,SE,135,7.0,7.0,79,0.00,,,0.00,meteohub,2013-06-23 02:57:00,
2013-06-22 21:02:00,49.3,44.1,24.19,SE,135,10.0,10.0,82,0.00,,,0.00,meteohub,2013-06-23 03:02:00,
2013-06-22 21:07:00,49.3,44.1,24.19,SE,135,10.0,10.0,82,0.00,,,0.00,meteohub,2013-06-23 03:07:00,
2013-06-22 21:12:00,46.9,44.8,24.19,SSE,158,11.0,11.0,92,0.00,,,0.00,meteohub,2013-06-23 03:12:00,
2013-06-22 21:17:00,46.8,44.8,24.19,SE,135,11.0,12.0,93,0.00,,,0.00,meteohub,2013-06-23 03:17:00,
2013-06-22 21:22:00,46.2,44.2,24.19,SSE,158,13.0,13.0,93,0.00,,,0.00,meteohub,2013-06-23 03:22:00,
2013-06-22 21:27:00,46.0,44.1,24.19,SSE,158,11.0,14.0,93,0.00,,,0.00,meteohub,2013-06-23 03:27:00,
2013-06-22 21:32:00,46.2,44.1,24.19,SSE,158,10.0,14.0,92,0.00,,,0.00,meteohub,2013-06-23 03:32:00,
2013-06-22 21:37:00,46.6,44.6,24.19,South,180,11.0,13.0,93,0.00,,,0.00,meteohub,2013-06-23 03:37:00,
2013-06-22 21:42:00,46.6,44.4,24.19,South,180,11.0,12.0,92,0.00,,,0.00,meteohub,2013-06-23 03:42:00,
2013-06-22 21:47:00,46.6,43.5,24.19,South,180,12.0,13.0,89,0.00,,,0.00,meteohub,2013-06-23 03:47:00,
2013-06-22 21:52:00,46.9,43.3,24.19,SW,225,11.0,13.0,87,0.00,,,0.00,meteohub,2013-06-23 03:52:00,
2013-06-22 21:57:00,46.9,42.6,24.19,South,180,12.0,13.0,85,0.00,,,0.00,meteohub,2013-06-23 03:57:00,
2013-06-22 22:02:00,46.9,42.4,24.19,South,180,13.0,14.0,84,0.00,,,0.00,meteohub,2013-06-23 04:02:00,
2013-06-22 22:07:00,46.9,42.4,24.19,South,180,13.0,14.0,84,0.00,,,0.00,meteohub,2013-06-23 04:07:00,
2013-06-22 22:17:00,46.8,42.8,24.20,South,180,12.0,13.0,86,0.00,,,0.00,meteohub,2013-06-23 04:17:00,
2013-06-22 22:22:00,46.4,43.0,24.20,South,180,15.0,15.0,88,0.00,,,0.00,meteohub,2013-06-23 04:22:00,
2013-06-22 22:27:00,46.0,43.3,24.20,South,180,11.0,16.0,90,0.00,,,0.00,meteohub,2013-06-23 04:27:00,
2013-06-22 22:32:00,46.0,43.5,24.20,South,180,9.0,16.0,91,0.00,,,0.00,meteohub,2013-06-23 04:32:00,
2013-06-22 22:37:00,45.9,43.7,24.20,South,180,12.0,16.0,92,0.00,,,0.00,meteohub,2013-06-23 04:37:00,
2013-06-22 22:42:00,45.7,43.5,24.19,South,180,12.0,12.0,92,0.00,,,0.00,meteohub,2013-06-23 04:42:00,
2013-06-22 22:47:00,45.9,43.7,24.19,SE,135,12.0,12.0,92,0.00,,,0.00,meteohub,2013-06-23 04:47:00,
2013-06-22 22:52:00,46.0,43.9,24.19,South,180,11.0,13.0,92,0.00,,,0.00,meteohub,2013-06-23 04:52:00,
2013-06-22 22:57:00,46.0,43.9,24.19,South,180,11.0,13.0,92,0.00,,,0.00,meteohub,2013-06-23 04:57:00,
2013-06-22 23:02:00,46.0,43.9,24.19,SSW,203,12.0,12.0,92,0.00,,,0.00,meteohub,2013-06-23 05:02:00,
2013-06-22 23:07:00,46.0,43.9,24.19,SSW,203,12.0,12.0,92,0.00,,,0.00,meteohub,2013-06-23 05:07:00,
2013-06-22 23:12:00,45.9,44.2,24.19,South,180,8.0,12.0,94,0.00,,,0.00,meteohub,2013-06-23 05:12:00,
2013-06-22 23:17:00,46.0,43.9,24.19,South,180,8.0,12.0,92,0.00,,,0.00,meteohub,2013-06-23 05:17:00,
2013-06-22 23:22:00,46.0,43.9,24.19,South,180,10.0,12.0,92,0.00,,,0.00,meteohub,2013-06-23 05:22:00,
2013-06-22 23:27:00,45.9,43.9,24.19,South,180,7.0,11.0,93,0.00,,,0.00,meteohub,2013-06-23 05:27:00,
2013-06-22 23:32:00,45.9,44.2,24.19,South,180,10.0,10.0,94,0.00,,,0.00,meteohub,2013-06-23 05:32:00,
2013-06-22 23:37:00,46.0,44.1,24.19,South,180,14.0,14.0,93,0.00,,,0.00,meteohub,2013-06-23 05:37:00,
2013-06-22 23:42:00,46.4,43.9,24.19,South,180,10.0,15.0,91,0.00,,,0.00,meteohub,2013-06-23 05:42:00,
2013-06-22 23:47:00,46.2,44.1,24.19,SW,225,8.0,15.0,92,0.00,,,0.00,meteohub,2013-06-23 05:47:00,
2013-06-22 23:52:00,46.0,43.9,24.19,South,180,8.0,15.0,92,0.00,,,0.00,meteohub,2013-06-23 05:52:00,
2013-06-22 23:57:00,46.0,43.9,24.19,South,180,6.0,11.0,92,0.00,,,0.00,meteohub,2013-06-23 05:57:00,